createdAt,value
2022-12-25T00:00:20.980Z,97.52
2022-12-25T00:10:17.346Z,97.62
2022-12-25T00:20:17.652Z,96.75
2022-12-25T00:30:17.677Z,96.69
2022-12-25T00:40:17.920Z,96.65
2022-12-25T00:50:18.149Z,96.85
2022-12-25T01:00:18.404Z,97.10
2022-12-25T01:10:18.451Z,96.14
2022-12-25T01:20:18.779Z,96.34
2022-12-25T01:30:18.813Z,95.06
2022-12-25T01:40:19.246Z,95.21
2022-12-25T01:50:19.297Z,94.14
2022-12-25T02:00:19.606Z,95.21
2022-12-25T02:10:19.631Z,95.87
2022-12-25T02:20:19.884Z,96.39
2022-12-25T02:30:20.099Z,96.80
2022-12-25T02:40:20.351Z,96.85
2022-12-25T02:50:20.578Z,96.75
2022-12-25T03:00:20.818Z,96.65
2022-12-25T03:10:21.045Z,96.65
2022-12-25T03:20:24.377Z,95.17
2022-12-25T03:30:21.450Z,96.44
2022-12-25T03:40:21.776Z,95.21
2022-12-25T03:50:21.806Z,91.67
2022-12-25T04:00:23.062Z,92.91
2022-12-25T04:10:22.292Z,93.77
2022-12-25T04:20:22.611Z,93.57
2022-12-25T04:30:22.649Z,93.51
2022-12-25T04:40:22.987Z,93.10
2022-12-25T04:50:23.014Z,92.93
2022-12-25T05:00:23.364Z,92.83
2022-12-25T05:10:23.503Z,93.65
2022-12-25T05:20:23.824Z,93.76
2022-12-25T05:30:23.865Z,95.34
2022-12-25T05:40:24.192Z,95.30
2022-12-25T05:50:24.225Z,95.70
2022-12-25T06:00:24.561Z,94.46
2022-12-25T06:10:24.601Z,92.50
2022-12-25T06:20:25.868Z,93.54
2022-12-25T06:30:25.086Z,96.11
2022-12-25T06:40:25.415Z,96.56
2022-12-25T06:50:25.452Z,95.53
2022-12-25T07:00:25.703Z,92.92
2022-12-25T07:10:25.923Z,92.44
2022-12-25T07:20:26.216Z,93.21
2022-12-25T07:30:26.247Z,95.23
2022-12-25T07:40:26.474Z,93.64
2022-12-25T07:50:26.721Z,92.61
2022-12-25T08:00:27.005Z,88.20
2022-12-25T08:10:27.228Z,89.54
2022-12-25T08:20:27.583Z,90.16
2022-12-25T08:30:27.720Z,91.08
2022-12-25T08:40:28.954Z,89.60
2022-12-25T08:50:27.983Z,88.02
2022-12-25T09:00:28.303Z,83.07
2022-12-25T09:10:28.320Z,83.76
2022-12-25T09:20:28.573Z,82.69
2022-12-25T09:30:28.801Z,80.40
2022-12-25T09:40:29.149Z,79.24
2022-12-25T09:50:29.180Z,77.42
2022-12-25T10:00:29.515Z,75.78
2022-12-25T10:10:29.567Z,73.60
2022-12-25T10:20:29.983Z,76.26
2022-12-25T10:30:30.058Z,76.36
2022-12-25T10:40:30.350Z,74.86
2022-12-25T10:50:30.401Z,75.03
2022-12-25T11:00:30.638Z,77.41
2022-12-25T11:10:30.883Z,75.92
2022-12-25T11:20:31.143Z,74.69
2022-12-25T11:30:31.374Z,73.47
2022-12-25T11:40:31.677Z,70.79
2022-12-25T11:50:31.683Z,70.25
2022-12-25T12:00:31.927Z,68.86
2022-12-25T12:10:32.166Z,67.41
2022-12-25T12:20:32.529Z,65.42
2022-12-25T12:30:32.572Z,64.01
2022-12-25T12:40:32.803Z,64.55
2022-12-25T12:50:33.021Z,69.17
2022-12-25T13:00:33.357Z,67.29
2022-12-25T13:10:33.401Z,67.72
2022-12-25T13:20:35.679Z,67.72
2022-12-25T13:30:33.721Z,73.09
2022-12-25T13:40:33.992Z,76.21
2022-12-25T13:50:34.010Z,77.91
2022-12-25T14:00:34.361Z,81.98
2022-12-25T14:10:34.483Z,86.22
2022-12-25T14:20:34.749Z,88.80
2022-12-25T14:30:35.014Z,90.99
2022-12-25T14:40:35.107Z,91.84
2022-12-25T14:50:35.183Z,93.98
2022-12-25T15:00:37.414Z,94.29
2022-12-25T15:20:36.740Z,95.56
2022-12-25T15:30:36.031Z,95.55
2022-12-25T15:40:36.058Z,96.72
2022-12-25T15:50:36.291Z,97.03
2022-12-25T16:00:36.516Z,97.28
2022-12-25T16:10:38.896Z,97.39
2022-12-25T16:20:36.843Z,97.95
2022-12-25T16:30:39.084Z,98.46
2022-12-25T16:40:37.313Z,98.97
2022-12-25T16:50:37.640Z,99.18
2022-12-25T17:00:37.709Z,99.29
2022-12-25T17:10:41.058Z,99.49
2022-12-25T17:20:38.095Z,99.49
2022-12-25T17:30:38.371Z,99.33
2022-12-25T17:40:38.405Z,99.99
2022-12-25T17:50:41.484Z,99.99
2022-12-25T18:00:38.812Z,99.99
2022-12-25T18:10:39.096Z,99.99
2022-12-25T18:20:40.497Z,99.99
2022-12-25T18:30:39.265Z,99.99
2022-12-25T18:40:39.294Z,99.99
2022-12-25T18:50:39.627Z,99.99
2022-12-25T19:00:39.891Z,99.99
2022-12-25T19:10:40.823Z,99.99
2022-12-25T19:20:40.215Z,99.99
2022-12-25T19:30:40.379Z,99.99
2022-12-25T19:40:40.421Z,99.99
2022-12-25T19:50:40.909Z,99.99
2022-12-25T20:00:40.873Z,99.99
2022-12-25T20:10:41.020Z,99.99
2022-12-25T20:20:41.050Z,99.99
2022-12-25T20:30:41.390Z,99.99
2022-12-25T20:41:16.359Z,99.99
2022-12-25T20:50:42.718Z,99.99
2022-12-25T21:00:42.065Z,99.99
2022-12-25T21:10:42.093Z,99.99
2022-12-25T21:20:42.412Z,99.99
2022-12-25T21:30:42.482Z,99.99
2022-12-25T21:40:45.760Z,99.99
2022-12-25T21:50:42.814Z,99.99
2022-12-25T22:00:43.159Z,99.99
2022-12-25T22:10:43.314Z,99.25
2022-12-25T22:20:44.451Z,95.71
2022-12-25T22:30:43.504Z,93.50
2022-12-25T22:40:43.585Z,92.99
2022-12-25T22:50:43.804Z,91.71
2022-12-25T23:00:46.464Z,90.43
2022-12-25T23:10:44.150Z,88.12
2022-12-25T23:20:44.436Z,88.12
2022-12-25T23:30:44.638Z,85.92
2022-12-25T23:40:44.717Z,87.09
2022-12-25T23:50:44.756Z,87.54
